sensor_id;sensor_type;location;lat;lon;timestamp;temperature;humidity
7290;DHT22;63176;52.678;13.250;2023-02-19T00:01:45;5.70;99.90
7290;DHT22;63176;52.678;13.250;2023-02-19T00:04:14;5.70;99.90
7290;DHT22;63176;52.678;13.250;2023-02-19T00:06:41;5.70;99.90
7290;DHT22;63176;52.678;13.250;2023-02-19T00:09:07;5.70;99.90
7290;DHT22;63176;52.678;13.250;2023-02-19T00:11:34;5.70;99.90
7290;DHT22;63176;52.678;13.250;2023-02-19T00:14:01;5.70;99.90
7290;DHT22;63176;52.678;13.250;2023-02-19T00:16:32;5.70;99.90
7290;DHT22;63176;52.678;13.250;2023-02-19T00:18:59;5.70;99.90
7290;DHT22;63176;52.678;13.250;2023-02-19T00:21:25;5.70;99.90
7290;DHT22;63176;52.678;13.250;2023-02-19T00:24:04;5.70;99.90
7290;DHT22;63176;52.678;13.250;2023-02-19T00:26:30;5.70;99.90
7290;DHT22;63176;52.678;13.250;2023-02-19T00:28:56;5.70;99.90
7290;DHT22;63176;52.678;13.250;2023-02-19T00:31:23;5.70;99.90
7290;DHT22;63176;52.678;13.250;2023-02-19T00:33:54;5.70;99.90
7290;DHT22;63176;52.678;13.250;2023-02-19T00:36:21;5.70;99.90
7290;DHT22;63176;52.678;13.250;2023-02-19T00:38:47;5.70;99.90
7290;DHT22;63176;52.678;13.250;2023-02-19T00:41:15;5.70;99.90
7290;DHT22;63176;52.678;13.250;2023-02-19T00:43:49;5.70;99.90
7290;DHT22;63176;52.678;13.250;2023-02-19T00:46:27;5.70;99.90
7290;DHT22;63176;52.678;13.250;2023-02-19T00:48:53;5.70;99.90
7290;DHT22;63176;52.678;13.250;2023-02-19T00:51:21;5.70;99.90
7290;DHT22;63176;52.678;13.250;2023-02-19T00:53:47;5.70;99.90
7290;DHT22;63176;52.678;13.250;2023-02-19T00:56:13;5.70;99.90
7290;DHT22;63176;52.678;13.250;2023-02-19T00:58:39;5.70;99.90
7290;DHT22;63176;52.678;13.250;2023-02-19T01:01:06;5.70;99.90
7290;DHT22;63176;52.678;13.250;2023-02-19T01:03:35;5.70;99.90
7290;DHT22;63176;52.678;13.250;2023-02-19T01:06:02;5.70;99.90
7290;DHT22;63176;52.678;13.250;2023-02-19T01:08:28;5.70;99.90
7290;DHT22;63176;52.678;13.250;2023-02-19T01:10:55;5.70;99.90
7290;DHT22;63176;52.678;13.250;2023-02-19T01:13:21;5.70;99.90
7290;DHT22;63176;52.678;13.250;2023-02-19T01:15:47;5.70;99.90
7290;DHT22;63176;52.678;13.250;2023-02-19T01:18:13;5.60;99.90
7290;DHT22;63176;52.678;13.250;2023-02-19T01:20:40;5.60;99.90
7290;DHT22;63176;52.678;13.250;2023-02-19T01:23:06;5.60;99.90
7290;DHT22;63176;52.678;13.250;2023-02-19T01:25:32;5.50;99.90
7290;DHT22;63176;52.678;13.250;2023-02-19T01:27:58;5.50;99.90
7290;DHT22;63176;52.678;13.250;2023-02-19T01:30:24;5.50;99.90
7290;DHT22;63176;52.678;13.250;2023-02-19T01:32:49;5.50;99.90
7290;DHT22;63176;52.678;13.250;2023-02-19T01:35:15;5.50;99.90
7290;DHT22;63176;52.678;13.250;2023-02-19T01:37:41;5.40;99.90
7290;DHT22;63176;52.678;13.250;2023-02-19T01:40:07;5.40;99.90
7290;DHT22;63176;52.678;13.250;2023-02-19T01:42:32;5.30;99.90
7290;DHT22;63176;52.678;13.250;2023-02-19T01:45:19;5.30;99.90
7290;DHT22;63176;52.678;13.250;2023-02-19T01:47:48;5.30;99.90
7290;DHT22;63176;52.678;13.250;2023-02-19T01:50:15;5.30;99.90
7290;DHT22;63176;52.678;13.250;2023-02-19T01:52:41;5.20;99.90
7290;DHT22;63176;52.678;13.250;2023-02-19T01:55:10;5.20;99.90
7290;DHT22;63176;52.678;13.250;2023-02-19T01:57:40;5.20;99.90
7290;DHT22;63176;52.678;13.250;2023-02-19T02:00:11;5.20;99.90
7290;DHT22;63176;52.678;13.250;2023-02-19T02:02:38;5.20;99.90
7290;DHT22;63176;52.678;13.250;2023-02-19T02:05:09;5.20;99.90
7290;DHT22;63176;52.678;13.250;2023-02-19T02:07:36;5.20;99.90
7290;DHT22;63176;52.678;13.250;2023-02-19T02:10:20;5.20;99.90
7290;DHT22;63176;52.678;13.250;2023-02-19T02:12:51;5.20;99.90
7290;DHT22;63176;52.678;13.250;2023-02-19T02:15:17;5.20;99.90
7290;DHT22;63176;52.678;13.250;2023-02-19T02:17:56;5.20;99.90
7290;DHT22;63176;52.678;13.250;2023-02-19T02:21:55;5.20;99.90
7290;DHT22;63176;52.678;13.250;2023-02-19T02:32:32;5.20;99.90
7290;DHT22;63176;52.678;13.250;2023-02-19T02:35:04;5.20;99.90
7290;DHT22;63176;52.678;13.250;2023-02-19T02:37:34;5.10;99.90
7290;DHT22;63176;52.678;13.250;2023-02-19T02:40:02;5.30;99.90
7290;DHT22;63176;52.678;13.250;2023-02-19T02:42:28;5.10;99.90
7290;DHT22;63176;52.678;13.250;2023-02-19T02:44:55;5.10;99.90
7290;DHT22;63176;52.678;13.250;2023-02-19T02:47:59;5.10;99.90
7290;DHT22;63176;52.678;13.250;2023-02-19T02:50:30;5.10;99.90
7290;DHT22;63176;52.678;13.250;2023-02-19T02:53:01;5.00;99.90
7290;DHT22;63176;52.678;13.250;2023-02-19T02:55:48;5.10;99.90
7290;DHT22;63176;52.678;13.250;2023-02-19T02:58:16;5.10;99.90
7290;DHT22;63176;52.678;13.250;2023-02-19T03:00:44;5.10;99.90
7290;DHT22;63176;52.678;13.250;2023-02-19T03:03:31;5.00;99.90
7290;DHT22;63176;52.678;13.250;2023-02-19T03:06:03;5.00;99.90
7290;DHT22;63176;52.678;13.250;2023-02-19T03:08:35;5.00;99.90
7290;DHT22;63176;52.678;13.250;2023-02-19T03:11:09;5.00;99.90
7290;DHT22;63176;52.678;13.250;2023-02-19T03:14:08;5.00;99.90
7290;DHT22;63176;52.678;13.250;2023-02-19T03:16:59;5.00;99.90
7290;DHT22;63176;52.678;13.250;2023-02-19T03:19:50;5.00;99.90
7290;DHT22;63176;52.678;13.250;2023-02-19T03:22:21;4.90;99.90
7290;DHT22;63176;52.678;13.250;2023-02-19T03:25:00;4.90;99.90
7290;DHT22;63176;52.678;13.250;2023-02-19T03:27:47;4.90;99.90
7290;DHT22;63176;52.678;13.250;2023-02-19T03:30:18;4.90;99.90
7290;DHT22;63176;52.678;13.250;2023-02-19T03:32:57;4.80;99.90
7290;DHT22;63176;52.678;13.250;2023-02-19T03:35:30;4.80;99.90
7290;DHT22;63176;52.678;13.250;2023-02-19T03:38:06;4.80;99.90
7290;DHT22;63176;52.678;13.250;2023-02-19T03:41:02;4.80;99.90
7290;DHT22;63176;52.678;13.250;2023-02-19T03:43:38;4.80;99.90
7290;DHT22;63176;52.678;13.250;2023-02-19T03:46:24;4.80;99.90
7290;DHT22;63176;52.678;13.250;2023-02-19T03:49:00;4.70;99.90
7290;DHT22;63176;52.678;13.250;2023-02-19T03:57:35;4.70;99.90
7290;DHT22;63176;52.678;13.250;2023-02-19T04:00:10;4.60;99.90
7290;DHT22;63176;52.678;13.250;2023-02-19T04:05:26;4.60;99.90
7290;DHT22;63176;52.678;13.250;2023-02-19T04:07:55;4.50;99.90
7290;DHT22;63176;52.678;13.250;2023-02-19T04:10:22;4.50;99.90
7290;DHT22;63176;52.678;13.250;2023-02-19T04:12:54;4.50;99.90
7290;DHT22;63176;52.678;13.250;2023-02-19T04:15:26;4.50;99.90
7290;DHT22;63176;52.678;13.250;2023-02-19T04:18:05;4.50;99.90
7290;DHT22;63176;52.678;13.250;2023-02-19T04:20:38;4.40;99.90
7290;DHT22;63176;52.678;13.250;2023-02-19T04:23:04;4.50;99.90
7290;DHT22;63176;52.678;13.250;2023-02-19T04:25:31;4.40;99.90
7290;DHT22;63176;52.678;13.250;2023-02-19T04:27:57;4.40;99.90
7290;DHT22;63176;52.678;13.250;2023-02-19T04:30:23;4.30;99.90
7290;DHT22;63176;52.678;13.250;2023-02-19T04:32:49;4.30;99.90
7290;DHT22;63176;52.678;13.250;2023-02-19T04:35:15;4.30;99.90
7290;DHT22;63176;52.678;13.250;2023-02-19T04:37:40;4.30;99.90
7290;DHT22;63176;52.678;13.250;2023-02-19T04:40:06;4.30;99.90
7290;DHT22;63176;52.678;13.250;2023-02-19T04:42:32;4.30;99.90
7290;DHT22;63176;52.678;13.250;2023-02-19T04:44:58;4.30;99.90
7290;DHT22;63176;52.678;13.250;2023-02-19T04:47:24;4.30;99.90
7290;DHT22;63176;52.678;13.250;2023-02-19T04:49:49;4.30;99.90
7290;DHT22;63176;52.678;13.250;2023-02-19T04:52:15;4.30;99.90
7290;DHT22;63176;52.678;13.250;2023-02-19T04:54:41;4.20;99.90
7290;DHT22;63176;52.678;13.250;2023-02-19T04:57:06;4.20;99.90
7290;DHT22;63176;52.678;13.250;2023-02-19T04:59:32;4.20;99.90
7290;DHT22;63176;52.678;13.250;2023-02-19T05:01:58;4.20;99.90
7290;DHT22;63176;52.678;13.250;2023-02-19T05:04:23;4.20;99.90
7290;DHT22;63176;52.678;13.250;2023-02-19T05:06:49;4.20;99.90
7290;DHT22;63176;52.678;13.250;2023-02-19T05:09:15;4.20;99.90
7290;DHT22;63176;52.678;13.250;2023-02-19T05:11:41;4.10;99.90
7290;DHT22;63176;52.678;13.250;2023-02-19T05:14:06;4.10;99.90
7290;DHT22;63176;52.678;13.250;2023-02-19T05:16:32;4.20;99.90
7290;DHT22;63176;52.678;13.250;2023-02-19T05:18:58;4.10;99.90
7290;DHT22;63176;52.678;13.250;2023-02-19T05:21:23;4.10;99.90
7290;DHT22;63176;52.678;13.250;2023-02-19T05:23:49;4.10;99.90
7290;DHT22;63176;52.678;13.250;2023-02-19T05:26:17;4.10;99.90
7290;DHT22;63176;52.678;13.250;2023-02-19T05:28:45;4.10;99.90
7290;DHT22;63176;52.678;13.250;2023-02-19T05:31:12;4.10;99.90
7290;DHT22;63176;52.678;13.250;2023-02-19T05:33:38;4.00;99.90
7290;DHT22;63176;52.678;13.250;2023-02-19T05:36:07;4.00;99.90
7290;DHT22;63176;52.678;13.250;2023-02-19T05:38:33;4.00;99.90
7290;DHT22;63176;52.678;13.250;2023-02-19T05:41:14;4.00;99.90
7290;DHT22;63176;52.678;13.250;2023-02-19T05:43:41;4.00;99.90
7290;DHT22;63176;52.678;13.250;2023-02-19T05:46:08;4.00;99.90
7290;DHT22;63176;52.678;13.250;2023-02-19T05:48:34;3.90;99.90
7290;DHT22;63176;52.678;13.250;2023-02-19T05:51:05;3.90;99.90
7290;DHT22;63176;52.678;13.250;2023-02-19T05:53:31;3.90;99.90
7290;DHT22;63176;52.678;13.250;2023-02-19T05:55:57;3.90;99.90
7290;DHT22;63176;52.678;13.250;2023-02-19T05:58:23;3.90;99.90
7290;DHT22;63176;52.678;13.250;2023-02-19T06:00:49;4.00;99.90
7290;DHT22;63176;52.678;13.250;2023-02-19T06:03:18;3.90;99.90
7290;DHT22;63176;52.678;13.250;2023-02-19T06:05:44;3.90;99.90
7290;DHT22;63176;52.678;13.250;2023-02-19T06:08:14;3.80;99.90
7290;DHT22;63176;52.678;13.250;2023-02-19T06:10:40;3.80;99.90
7290;DHT22;63176;52.678;13.250;2023-02-19T06:13:07;3.80;99.90
7290;DHT22;63176;52.678;13.250;2023-02-19T06:15:33;3.80;99.90
7290;DHT22;63176;52.678;13.250;2023-02-19T06:17:59;3.80;99.90
7290;DHT22;63176;52.678;13.250;2023-02-19T06:20:25;3.80;99.90
7290;DHT22;63176;52.678;13.250;2023-02-19T06:22:50;3.80;99.90
7290;DHT22;63176;52.678;13.250;2023-02-19T06:25:17;3.80;99.90
7290;DHT22;63176;52.678;13.250;2023-02-19T06:27:42;3.80;99.90
7290;DHT22;63176;52.678;13.250;2023-02-19T06:30:09;3.80;99.90
7290;DHT22;63176;52.678;13.250;2023-02-19T06:32:35;3.80;99.90
7290;DHT22;63176;52.678;13.250;2023-02-19T06:35:01;3.80;99.90
7290;DHT22;63176;52.678;13.250;2023-02-19T06:37:26;3.90;99.90
7290;DHT22;63176;52.678;13.250;2023-02-19T06:39:52;3.80;99.90
7290;DHT22;63176;52.678;13.250;2023-02-19T06:42:18;3.90;99.90
7290;DHT22;63176;52.678;13.250;2023-02-19T06:44:43;3.90;99.90
7290;DHT22;63176;52.678;13.250;2023-02-19T06:47:09;3.80;99.90
7290;DHT22;63176;52.678;13.250;2023-02-19T06:49:34;3.80;99.90
7290;DHT22;63176;52.678;13.250;2023-02-19T06:52:00;3.80;99.90
7290;DHT22;63176;52.678;13.250;2023-02-19T06:54:27;3.80;99.90
7290;DHT22;63176;52.678;13.250;2023-02-19T06:56:53;3.80;99.90
7290;DHT22;63176;52.678;13.250;2023-02-19T06:59:21;3.80;99.90
7290;DHT22;63176;52.678;13.250;2023-02-19T07:01:47;3.80;99.90
7290;DHT22;63176;52.678;13.250;2023-02-19T07:04:12;3.80;99.90
7290;DHT22;63176;52.678;13.250;2023-02-19T07:06:39;3.90;99.90
7290;DHT22;63176;52.678;13.250;2023-02-19T07:09:06;3.90;99.90
7290;DHT22;63176;52.678;13.250;2023-02-19T07:11:34;3.90;99.90
7290;DHT22;63176;52.678;13.250;2023-02-19T07:14:02;3.90;99.90
7290;DHT22;63176;52.678;13.250;2023-02-19T07:16:28;4.00;99.90
7290;DHT22;63176;52.678;13.250;2023-02-19T07:18:58;3.90;99.90
7290;DHT22;63176;52.678;13.250;2023-02-19T07:21:24;4.00;99.90
7290;DHT22;63176;52.678;13.250;2023-02-19T07:23:51;4.00;99.90
7290;DHT22;63176;52.678;13.250;2023-02-19T07:26:18;4.00;99.90
7290;DHT22;63176;52.678;13.250;2023-02-19T07:28:45;4.00;99.90
7290;DHT22;63176;52.678;13.250;2023-02-19T07:31:12;4.10;99.90
7290;DHT22;63176;52.678;13.250;2023-02-19T07:33:38;4.10;99.90
7290;DHT22;63176;52.678;13.250;2023-02-19T07:36:06;4.10;99.90
7290;DHT22;63176;52.678;13.250;2023-02-19T07:38:32;4.10;99.90
7290;DHT22;63176;52.678;13.250;2023-02-19T07:40:59;4.20;99.90
7290;DHT22;63176;52.678;13.250;2023-02-19T07:43:27;4.20;99.90
7290;DHT22;63176;52.678;13.250;2023-02-19T07:45:53;4.20;99.90
7290;DHT22;63176;52.678;13.250;2023-02-19T07:48:19;4.20;99.90
7290;DHT22;63176;52.678;13.250;2023-02-19T07:50:52;4.30;99.90
7290;DHT22;63176;52.678;13.250;2023-02-19T07:53:18;4.30;99.90
7290;DHT22;63176;52.678;13.250;2023-02-19T07:55:44;4.20;99.90
7290;DHT22;63176;52.678;13.250;2023-02-19T07:58:10;4.20;99.90
7290;DHT22;63176;52.678;13.250;2023-02-19T08:00:35;4.20;99.90
7290;DHT22;63176;52.678;13.250;2023-02-19T08:03:01;4.30;99.90
7290;DHT22;63176;52.678;13.250;2023-02-19T08:05:32;4.40;99.90
7290;DHT22;63176;52.678;13.250;2023-02-19T08:07:59;4.40;99.90
7290;DHT22;63176;52.678;13.250;2023-02-19T08:10:25;4.50;99.90
7290;DHT22;63176;52.678;13.250;2023-02-19T08:13:14;4.40;99.90
7290;DHT22;63176;52.678;13.250;2023-02-19T08:15:56;4.50;99.90
7290;DHT22;63176;52.678;13.250;2023-02-19T08:18:33;4.40;99.90
7290;DHT22;63176;52.678;13.250;2023-02-19T08:20:59;4.40;99.90
7290;DHT22;63176;52.678;13.250;2023-02-19T08:23:25;4.50;99.90
7290;DHT22;63176;52.678;13.250;2023-02-19T08:25:52;4.50;99.90
7290;DHT22;63176;52.678;13.250;2023-02-19T08:28:19;4.60;99.90
7290;DHT22;63176;52.678;13.250;2023-02-19T08:30:46;4.60;99.90
7290;DHT22;63176;52.678;13.250;2023-02-19T08:33:14;4.70;99.90
7290;DHT22;63176;52.678;13.250;2023-02-19T08:35:40;4.90;99.90
7290;DHT22;63176;52.678;13.250;2023-02-19T08:38:07;5.00;99.90
7290;DHT22;63176;52.678;13.250;2023-02-19T08:40:33;5.10;99.90
7290;DHT22;63176;52.678;13.250;2023-02-19T08:43:10;5.30;99.90
7290;DHT22;63176;52.678;13.250;2023-02-19T08:45:40;5.40;99.90
7290;DHT22;63176;52.678;13.250;2023-02-19T08:48:07;5.50;99.90
7290;DHT22;63176;52.678;13.250;2023-02-19T08:50:33;5.50;99.90
7290;DHT22;63176;52.678;13.250;2023-02-19T08:53:00;5.60;99.90
7290;DHT22;63176;52.678;13.250;2023-02-19T08:55:26;5.60;99.90
7290;DHT22;63176;52.678;13.250;2023-02-19T08:57:52;5.60;99.90
7290;DHT22;63176;52.678;13.250;2023-02-19T09:00:17;5.50;99.90
7290;DHT22;63176;52.678;13.250;2023-02-19T09:02:43;5.40;99.90
7290;DHT22;63176;52.678;13.250;2023-02-19T09:05:10;5.50;99.90
7290;DHT22;63176;52.678;13.250;2023-02-19T09:07:36;5.50;99.90
7290;DHT22;63176;52.678;13.250;2023-02-19T09:10:03;5.50;99.90
7290;DHT22;63176;52.678;13.250;2023-02-19T09:12:29;5.60;99.90
7290;DHT22;63176;52.678;13.250;2023-02-19T09:14:54;5.60;99.90
7290;DHT22;63176;52.678;13.250;2023-02-19T09:17:20;5.60;99.90
7290;DHT22;63176;52.678;13.250;2023-02-19T09:19:46;5.60;99.90
7290;DHT22;63176;52.678;13.250;2023-02-19T09:22:11;5.70;99.90
7290;DHT22;63176;52.678;13.250;2023-02-19T09:24:37;5.70;99.90
7290;DHT22;63176;52.678;13.250;2023-02-19T09:27:02;5.70;99.90
7290;DHT22;63176;52.678;13.250;2023-02-19T09:29:28;5.90;99.90
7290;DHT22;63176;52.678;13.250;2023-02-19T09:31:58;6.00;99.90
7290;DHT22;63176;52.678;13.250;2023-02-19T09:34:26;6.00;99.90
7290;DHT22;63176;52.678;13.250;2023-02-19T09:36:52;5.90;99.90
7290;DHT22;63176;52.678;13.250;2023-02-19T09:39:18;5.80;99.90
7290;DHT22;63176;52.678;13.250;2023-02-19T09:41:45;5.90;99.90
7290;DHT22;63176;52.678;13.250;2023-02-19T09:44:35;5.90;99.90
7290;DHT22;63176;52.678;13.250;2023-02-19T09:47:05;5.90;99.90
7290;DHT22;63176;52.678;13.250;2023-02-19T09:49:38;6.10;99.90
7290;DHT22;63176;52.678;13.250;2023-02-19T09:54:40;6.30;99.90
7290;DHT22;63176;52.678;13.250;2023-02-19T09:57:13;6.70;99.90
7290;DHT22;63176;52.678;13.250;2023-02-19T09:59:50;6.90;99.90
7290;DHT22;63176;52.678;13.250;2023-02-19T10:02:22;6.90;99.90
7290;DHT22;63176;52.678;13.250;2023-02-19T10:04:49;7.00;99.90
7290;DHT22;63176;52.678;13.250;2023-02-19T10:07:34;7.10;99.90
7290;DHT22;63176;52.678;13.250;2023-02-19T10:10:20;7.10;99.90
7290;DHT22;63176;52.678;13.250;2023-02-19T10:12:49;7.30;99.90
7290;DHT22;63176;52.678;13.250;2023-02-19T10:15:30;7.40;99.90
7290;DHT22;63176;52.678;13.250;2023-02-19T10:17:56;7.60;99.90
7290;DHT22;63176;52.678;13.250;2023-02-19T10:20:23;8.00;99.90
7290;DHT22;63176;52.678;13.250;2023-02-19T10:23:12;8.00;99.90
7290;DHT22;63176;52.678;13.250;2023-02-19T10:25:44;7.70;99.90
7290;DHT22;63176;52.678;13.250;2023-02-19T10:28:14;7.70;99.90
7290;DHT22;63176;52.678;13.250;2023-02-19T10:30:42;8.20;99.90
7290;DHT22;63176;52.678;13.250;2023-02-19T10:33:10;8.80;99.90
7290;DHT22;63176;52.678;13.250;2023-02-19T10:38:46;8.50;99.90
7290;DHT22;63176;52.678;13.250;2023-02-19T10:43:41;7.80;99.90
7290;DHT22;63176;52.678;13.250;2023-02-19T10:48:59;7.90;99.90
7290;DHT22;63176;52.678;13.250;2023-02-19T10:51:36;8.00;99.90
7290;DHT22;63176;52.678;13.250;2023-02-19T10:54:18;8.00;99.90
7290;DHT22;63176;52.678;13.250;2023-02-19T10:56:44;7.90;99.90
7290;DHT22;63176;52.678;13.250;2023-02-19T10:59:28;7.80;99.90
7290;DHT22;63176;52.678;13.250;2023-02-19T11:02:14;7.80;99.90
7290;DHT22;63176;52.678;13.250;2023-02-19T11:04:40;7.90;99.90
7290;DHT22;63176;52.678;13.250;2023-02-19T11:07:12;7.70;99.90
7290;DHT22;63176;52.678;13.250;2023-02-19T11:09:40;7.40;99.90
7290;DHT22;63176;52.678;13.250;2023-02-19T11:12:08;7.20;99.90
7290;DHT22;63176;52.678;13.250;2023-02-19T11:14:35;7.10;99.90
7290;DHT22;63176;52.678;13.250;2023-02-19T11:17:02;7.10;99.90
7290;DHT22;63176;52.678;13.250;2023-02-19T11:19:38;7.10;99.90
7290;DHT22;63176;52.678;13.250;2023-02-19T11:24:51;7.10;99.90
7290;DHT22;63176;52.678;13.250;2023-02-19T11:27:22;7.20;99.90
7290;DHT22;63176;52.678;13.250;2023-02-19T11:29:49;7.30;99.90
7290;DHT22;63176;52.678;13.250;2023-02-19T11:32:22;7.40;99.90
7290;DHT22;63176;52.678;13.250;2023-02-19T11:34:49;7.30;99.90
7290;DHT22;63176;52.678;13.250;2023-02-19T11:37:19;7.20;99.90
7290;DHT22;63176;52.678;13.250;2023-02-19T11:39:49;7.10;99.90
7290;DHT22;63176;52.678;13.250;2023-02-19T11:45:21;7.00;99.90
7290;DHT22;63176;52.678;13.250;2023-02-19T11:51:14;6.90;99.90
7290;DHT22;63176;52.678;13.250;2023-02-19T11:59:01;6.90;99.90
7290;DHT22;63176;52.678;13.250;2023-02-19T12:45:26;6.20;99.90
7290;DHT22;63176;52.678;13.250;2023-02-19T12:50:54;6.10;99.90
7290;DHT22;63176;52.678;13.250;2023-02-19T12:53:48;6.20;99.90
7290;DHT22;63176;52.678;13.250;2023-02-19T12:59:10;6.30;99.90
7290;DHT22;63176;52.678;13.250;2023-02-19T13:02:01;6.40;99.90
7290;DHT22;63176;52.678;13.250;2023-02-19T13:07:21;6.80;99.90
7290;DHT22;63176;52.678;13.250;2023-02-19T13:10:05;6.90;99.90
7290;DHT22;63176;52.678;13.250;2023-02-19T13:12:37;6.90;99.90
7290;DHT22;63176;52.678;13.250;2023-02-19T13:15:13;6.90;99.90
7290;DHT22;63176;52.678;13.250;2023-02-19T13:17:51;6.90;99.90
7290;DHT22;63176;52.678;13.250;2023-02-19T13:20:25;7.00;99.90
7290;DHT22;63176;52.678;13.250;2023-02-19T13:25:54;7.20;99.90
7290;DHT22;63176;52.678;13.250;2023-02-19T13:28:46;7.40;99.90
7290;DHT22;63176;52.678;13.250;2023-02-19T13:31:26;7.50;99.90
7290;DHT22;63176;52.678;13.250;2023-02-19T13:34:17;7.50;99.90
7290;DHT22;63176;52.678;13.250;2023-02-19T13:36:45;7.60;99.90
7290;DHT22;63176;52.678;13.250;2023-02-19T13:39:14;7.60;99.90
7290;DHT22;63176;52.678;13.250;2023-02-19T13:41:48;7.70;99.90
7290;DHT22;63176;52.678;13.250;2023-02-19T13:44:22;7.70;99.90
7290;DHT22;63176;52.678;13.250;2023-02-19T13:46:49;7.70;99.90
7290;DHT22;63176;52.678;13.250;2023-02-19T13:51:55;7.40;99.90
7290;DHT22;63176;52.678;13.250;2023-02-19T13:54:32;7.40;99.90
7290;DHT22;63176;52.678;13.250;2023-02-19T13:59:52;7.20;99.90
7290;DHT22;63176;52.678;13.250;2023-02-19T14:05:02;7.10;99.90
7290;DHT22;63176;52.678;13.250;2023-02-19T14:07:48;7.00;99.90
7290;DHT22;63176;52.678;13.250;2023-02-19T14:10:51;7.00;99.90
7290;DHT22;63176;52.678;13.250;2023-02-19T14:19:12;6.80;99.90
7290;DHT22;63176;52.678;13.250;2023-02-19T14:21:39;6.70;99.90
7290;DHT22;63176;52.678;13.250;2023-02-19T14:24:13;6.70;99.90
7290;DHT22;63176;52.678;13.250;2023-02-19T14:26:40;6.60;99.90
7290;DHT22;63176;52.678;13.250;2023-02-19T14:29:07;6.60;99.90
7290;DHT22;63176;52.678;13.250;2023-02-19T14:31:36;6.60;99.90
7290;DHT22;63176;52.678;13.250;2023-02-19T14:34:15;6.60;99.90
7290;DHT22;63176;52.678;13.250;2023-02-19T14:36:46;6.50;99.90
7290;DHT22;63176;52.678;13.250;2023-02-19T14:39:21;6.50;99.90
7290;DHT22;63176;52.678;13.250;2023-02-19T14:41:51;6.50;99.90
7290;DHT22;63176;52.678;13.250;2023-02-19T14:47:20;6.50;99.90
7290;DHT22;63176;52.678;13.250;2023-02-19T14:52:28;6.60;99.90
7290;DHT22;63176;52.678;13.250;2023-02-19T14:55:13;6.70;99.90
7290;DHT22;63176;52.678;13.250;2023-02-19T14:57:44;6.70;99.90
7290;DHT22;63176;52.678;13.250;2023-02-19T15:00:28;6.80;99.90
7290;DHT22;63176;52.678;13.250;2023-02-19T15:02:55;6.80;99.90
7290;DHT22;63176;52.678;13.250;2023-02-19T15:05:35;6.80;99.90
7290;DHT22;63176;52.678;13.250;2023-02-19T15:08:32;6.80;99.90
7290;DHT22;63176;52.678;13.250;2023-02-19T15:11:00;6.80;99.90
7290;DHT22;63176;52.678;13.250;2023-02-19T15:13:28;6.80;99.90
7290;DHT22;63176;52.678;13.250;2023-02-19T15:15:54;6.80;99.90
7290;DHT22;63176;52.678;13.250;2023-02-19T15:18:25;6.80;99.90
7290;DHT22;63176;52.678;13.250;2023-02-19T15:20:59;6.70;99.90
7290;DHT22;63176;52.678;13.250;2023-02-19T15:23:26;6.70;99.90
7290;DHT22;63176;52.678;13.250;2023-02-19T15:25:55;6.60;99.90
7290;DHT22;63176;52.678;13.250;2023-02-19T15:28:31;6.60;99.90
7290;DHT22;63176;52.678;13.250;2023-02-19T15:33:23;6.50;99.90
7290;DHT22;63176;52.678;13.250;2023-02-19T15:35:51;6.40;99.90
7290;DHT22;63176;52.678;13.250;2023-02-19T15:38:18;6.40;99.90
7290;DHT22;63176;52.678;13.250;2023-02-19T15:40:47;6.30;99.90
7290;DHT22;63176;52.678;13.250;2023-02-19T15:43:36;6.30;99.90
7290;DHT22;63176;52.678;13.250;2023-02-19T15:46:16;6.20;99.90
7290;DHT22;63176;52.678;13.250;2023-02-19T15:51:43;6.10;99.90
7290;DHT22;63176;52.678;13.250;2023-02-19T15:54:34;6.20;99.90
7290;DHT22;63176;52.678;13.250;2023-02-19T15:57:06;6.00;99.90
7290;DHT22;63176;52.678;13.250;2023-02-19T15:59:47;6.00;99.90
7290;DHT22;63176;52.678;13.250;2023-02-19T16:02:16;6.00;99.90
7290;DHT22;63176;52.678;13.250;2023-02-19T16:04:44;5.90;99.90
7290;DHT22;63176;52.678;13.250;2023-02-19T16:07:26;5.90;99.90
7290;DHT22;63176;52.678;13.250;2023-02-19T16:10:19;5.90;99.90
7290;DHT22;63176;52.678;13.250;2023-02-19T16:12:59;5.80;99.90
7290;DHT22;63176;52.678;13.250;2023-02-19T16:15:27;5.70;99.90
7290;DHT22;63176;52.678;13.250;2023-02-19T16:17:53;5.60;99.90
7290;DHT22;63176;52.678;13.250;2023-02-19T16:20:31;5.60;99.90
7290;DHT22;63176;52.678;13.250;2023-02-19T16:23:12;5.50;99.90
7290;DHT22;63176;52.678;13.250;2023-02-19T16:25:41;5.50;99.90
7290;DHT22;63176;52.678;13.250;2023-02-19T16:28:24;5.40;99.90
7290;DHT22;63176;52.678;13.250;2023-02-19T16:31:01;5.30;99.90
7290;DHT22;63176;52.678;13.250;2023-02-19T16:33:40;5.30;99.90
7290;DHT22;63176;52.678;13.250;2023-02-19T16:46:52;4.70;99.90
7290;DHT22;63176;52.678;13.250;2023-02-19T16:49:18;4.60;99.90
7290;DHT22;63176;52.678;13.250;2023-02-19T16:51:46;4.60;99.90
7290;DHT22;63176;52.678;13.250;2023-02-19T16:54:12;4.40;99.90
7290;DHT22;63176;52.678;13.250;2023-02-19T16:56:38;4.30;99.90
7290;DHT22;63176;52.678;13.250;2023-02-19T17:02:25;4.00;99.90
7290;DHT22;63176;52.678;13.250;2023-02-19T17:04:51;3.90;99.90
7290;DHT22;63176;52.678;13.250;2023-02-19T17:07:20;3.70;99.90
7290;DHT22;63176;52.678;13.250;2023-02-19T17:09:46;3.70;99.90
7290;DHT22;63176;52.678;13.250;2023-02-19T17:12:13;3.60;99.90
7290;DHT22;63176;52.678;13.250;2023-02-19T17:14:40;3.40;99.90
7290;DHT22;63176;52.678;13.250;2023-02-19T17:17:06;3.30;99.90
7290;DHT22;63176;52.678;13.250;2023-02-19T17:19:31;3.30;99.90
7290;DHT22;63176;52.678;13.250;2023-02-19T17:21:57;3.20;99.90
7290;DHT22;63176;52.678;13.250;2023-02-19T17:24:23;3.10;99.90
7290;DHT22;63176;52.678;13.250;2023-02-19T17:26:49;3.10;99.90
7290;DHT22;63176;52.678;13.250;2023-02-19T17:29:15;3.00;99.90
7290;DHT22;63176;52.678;13.250;2023-02-19T17:31:43;2.90;99.90
7290;DHT22;63176;52.678;13.250;2023-02-19T17:34:08;2.80;99.90
7290;DHT22;63176;52.678;13.250;2023-02-19T17:36:34;2.70;99.90
7290;DHT22;63176;52.678;13.250;2023-02-19T17:39:03;2.70;99.90
7290;DHT22;63176;52.678;13.250;2023-02-19T17:41:31;2.60;99.90
7290;DHT22;63176;52.678;13.250;2023-02-19T17:43:57;2.60;99.90
7290;DHT22;63176;52.678;13.250;2023-02-19T17:46:24;2.50;99.90
7290;DHT22;63176;52.678;13.250;2023-02-19T17:48:51;2.50;99.90
7290;DHT22;63176;52.678;13.250;2023-02-19T17:51:17;2.50;99.90
7290;DHT22;63176;52.678;13.250;2023-02-19T17:53:43;2.40;99.90
7290;DHT22;63176;52.678;13.250;2023-02-19T17:56:18;2.40;99.90
7290;DHT22;63176;52.678;13.250;2023-02-19T17:58:45;2.40;99.90
7290;DHT22;63176;52.678;13.250;2023-02-19T18:01:11;2.40;99.90
7290;DHT22;63176;52.678;13.250;2023-02-19T18:03:36;2.40;99.90
7290;DHT22;63176;52.678;13.250;2023-02-19T18:06:03;2.30;99.90
7290;DHT22;63176;52.678;13.250;2023-02-19T18:08:28;2.40;99.90
7290;DHT22;63176;52.678;13.250;2023-02-19T18:10:54;2.40;99.90
7290;DHT22;63176;52.678;13.250;2023-02-19T18:13:20;2.50;99.90
7290;DHT22;63176;52.678;13.250;2023-02-19T18:15:46;2.60;99.90
7290;DHT22;63176;52.678;13.250;2023-02-19T18:18:11;2.40;99.90
7290;DHT22;63176;52.678;13.250;2023-02-19T18:20:37;2.40;99.90
7290;DHT22;63176;52.678;13.250;2023-02-19T18:23:03;2.30;99.90